createdAt,value
2019-03-21T00:01:08.011Z,62.54
2019-03-21T00:03:37.281Z,62.52
2019-03-21T00:06:08.574Z,62.06
2019-03-21T00:08:37.825Z,61.90
2019-03-21T00:11:13.090Z,61.96
2019-03-21T00:13:42.264Z,61.18
2019-03-21T00:16:13.651Z,60.88
2019-03-21T00:18:43.059Z,60.09
2019-03-21T00:21:12.255Z,60.67
2019-03-21T00:23:41.336Z,61.39
2019-03-21T00:26:10.642Z,61.58
2019-03-21T00:28:39.797Z,61.58
2019-03-21T00:31:09.004Z,61.45
2019-03-21T00:33:38.270Z,61.47
2019-03-21T00:36:07.422Z,61.49
2019-03-21T00:38:36.566Z,61.67
2019-03-21T00:41:05.812Z,61.47
2019-03-21T00:43:35.025Z,61.41
2019-03-21T00:46:04.203Z,60.94
2019-03-21T00:48:33.302Z,60.94
2019-03-21T00:51:02.438Z,60.93
2019-03-21T00:53:31.502Z,60.93
2019-03-21T00:56:00.667Z,60.99
2019-03-21T00:58:29.892Z,60.99
2019-03-21T01:01:02.200Z,61.22
2019-03-21T01:03:31.431Z,60.71
2019-03-21T01:06:00.648Z,60.05
2019-03-21T01:08:29.806Z,60.05
2019-03-21T01:10:58.949Z,59.68
2019-03-21T01:13:31.056Z,57.82
2019-03-21T01:16:00.200Z,57.82
2019-03-21T01:18:29.406Z,56.66
2019-03-21T01:20:58.687Z,53.61
2019-03-21T01:23:28.032Z,52.13
2019-03-21T01:26:00.187Z,52.82
2019-03-21T01:28:29.300Z,51.35
2019-03-21T01:30:58.496Z,51.37
2019-03-21T01:33:27.668Z,51.20
2019-03-21T01:35:56.847Z,51.58
2019-03-21T01:38:25.954Z,50.63
2019-03-21T01:40:57.666Z,50.05
2019-03-21T01:43:27.182Z,50.75
2019-03-21T01:45:56.324Z,50.05
2019-03-21T01:48:25.437Z,50.03
2019-03-21T01:50:54.972Z,50.25
2019-03-21T01:53:24.187Z,50.72
2019-03-21T01:55:53.350Z,50.72
2019-03-21T01:58:22.546Z,50.95
2019-03-21T02:00:58.068Z,51.71
2019-03-21T02:03:27.252Z,53.39
2019-03-21T02:05:56.404Z,54.82
2019-03-21T02:08:25.612Z,56.77
2019-03-21T02:10:54.866Z,57.71
2019-03-21T02:13:24.010Z,57.28
2019-03-21T02:15:53.223Z,56.85
2019-03-21T02:18:22.415Z,56.20
2019-03-21T02:20:51.478Z,56.64
2019-03-21T02:23:20.622Z,56.41
2019-03-21T02:25:49.798Z,55.35
2019-03-21T02:28:19.066Z,54.58
2019-03-21T02:30:50.398Z,53.62
2019-03-21T02:33:25.722Z,53.46
2019-03-21T02:35:54.864Z,53.17
2019-03-21T02:38:24.013Z,52.30
2019-03-21T02:40:56.241Z,54.46
2019-03-21T02:43:25.368Z,56.22
2019-03-21T02:45:54.513Z,55.86
2019-03-21T02:48:23.717Z,55.32
2019-03-21T02:50:52.838Z,54.93
2019-03-21T02:53:22.040Z,55.73
2019-03-21T02:55:51.573Z,57.16
2019-03-21T02:58:20.707Z,58.39
2019-03-21T03:00:49.855Z,59.17
2019-03-21T03:03:19.024Z,60.05
2019-03-21T03:05:48.162Z,61.02
2019-03-21T03:08:17.299Z,61.65
2019-03-21T03:10:58.023Z,61.76
2019-03-21T03:13:27.228Z,62.02
2019-03-21T03:15:56.375Z,62.72
2019-03-21T03:18:26.212Z,62.89
2019-03-21T03:20:55.358Z,62.75
2019-03-21T03:23:24.476Z,62.57
2019-03-21T03:25:53.652Z,62.64
2019-03-21T03:28:25.770Z,63.09
2019-03-21T03:30:57.396Z,62.99
2019-03-21T03:33:27.138Z,63.12
2019-03-21T03:35:56.364Z,63.12
2019-03-21T03:38:25.500Z,63.27
2019-03-21T03:41:06.720Z,62.68
2019-03-21T03:43:35.927Z,62.67
2019-03-21T03:46:05.151Z,62.53
2019-03-21T03:48:34.384Z,62.46
2019-03-21T03:51:03.580Z,62.44
2019-03-21T03:53:32.718Z,62.91
2019-03-21T03:56:02.023Z,63.30
2019-03-21T03:58:37.115Z,63.22
2019-03-21T04:01:06.414Z,63.46
2019-03-21T04:03:35.962Z,63.55
2019-03-21T04:06:06.065Z,63.25
2019-03-21T04:08:35.228Z,63.18
2019-03-21T04:11:04.440Z,63.50
2019-03-21T04:13:33.651Z,63.38
2019-03-21T04:16:02.903Z,63.20
2019-03-21T04:18:32.119Z,63.33
2019-03-21T04:21:07.158Z,63.72
2019-03-21T04:23:36.290Z,63.87
2019-03-21T04:26:08.443Z,64.05
2019-03-21T04:28:37.656Z,63.85
2019-03-21T04:31:06.858Z,64.20
2019-03-21T04:33:35.974Z,64.63
2019-03-21T04:36:05.186Z,65.32
2019-03-21T04:38:34.372Z,65.75
2019-03-21T04:41:03.633Z,66.19
2019-03-21T04:43:32.844Z,66.70
2019-03-21T04:46:03.532Z,66.97
2019-03-21T04:48:33.176Z,67.31
2019-03-21T04:51:02.327Z,67.63
2019-03-21T04:53:31.402Z,67.11
2019-03-21T04:56:00.506Z,67.19
2019-03-21T04:58:29.579Z,66.76
2019-03-21T05:00:59.474Z,66.44
2019-03-21T05:03:30.226Z,66.76
2019-03-21T05:05:59.435Z,66.40
2019-03-21T05:08:28.494Z,66.56
2019-03-21T05:10:58.147Z,66.62
2019-03-21T05:13:27.355Z,66.77
2019-03-21T05:15:56.543Z,66.68
2019-03-21T05:18:28.564Z,66.97
2019-03-21T05:20:58.641Z,67.24
2019-03-21T05:23:27.773Z,66.75
2019-03-21T05:25:56.999Z,66.78
2019-03-21T05:28:26.162Z,66.53
2019-03-21T05:31:01.371Z,66.27
2019-03-21T05:33:30.617Z,65.09
2019-03-21T05:35:59.768Z,65.12
2019-03-21T05:38:31.792Z,64.38
2019-03-21T05:41:01.047Z,63.54
2019-03-21T05:43:41.997Z,63.27
2019-03-21T05:46:11.168Z,62.88
2019-03-21T05:48:40.231Z,62.81
2019-03-21T05:51:09.436Z,62.53
2019-03-21T05:53:38.598Z,62.68
2019-03-21T05:56:08.202Z,62.50
2019-03-21T05:58:37.334Z,62.15
2019-03-21T06:01:14.389Z,61.92
2019-03-21T06:03:50.684Z,61.92
2019-03-21T06:06:22.849Z,61.13
2019-03-21T06:08:51.984Z,61.04
2019-03-21T06:11:21.122Z,60.46
2019-03-21T06:13:50.367Z,59.96
2019-03-21T06:16:19.501Z,59.17
2019-03-21T06:19:00.425Z,58.29
2019-03-21T06:21:38.101Z,57.81
2019-03-21T06:24:16.201Z,57.37
2019-03-21T06:26:54.017Z,56.35
2019-03-21T06:29:23.202Z,55.04
2019-03-21T06:31:52.338Z,54.01
2019-03-21T06:34:21.513Z,52.89
2019-03-21T06:36:50.768Z,52.91
2019-03-21T06:39:19.897Z,52.54
2019-03-21T06:41:49.110Z,52.15
2019-03-21T06:44:18.265Z,50.94
2019-03-21T06:46:49.729Z,51.39
2019-03-21T06:49:18.154Z,50.36
2019-03-21T06:51:47.394Z,50.19
2019-03-21T06:54:16.455Z,49.65
2019-03-21T06:56:45.591Z,49.10
2019-03-21T06:59:14.708Z,48.34
2019-03-21T07:01:43.905Z,47.87
2019-03-21T07:04:12.999Z,47.58
2019-03-21T07:06:42.152Z,47.28
2019-03-21T07:09:11.211Z,47.17
2019-03-21T07:11:40.286Z,46.79
2019-03-21T07:14:09.546Z,46.14
2019-03-21T07:16:38.599Z,45.62
2019-03-21T07:19:07.799Z,45.42
2019-03-21T07:21:36.892Z,45.10
2019-03-21T07:24:06.132Z,44.03
2019-03-21T07:26:35.278Z,43.62
2019-03-21T07:29:04.513Z,43.94
2019-03-21T07:31:33.726Z,43.80
2019-03-21T07:34:02.803Z,43.73
2019-03-21T07:36:32.059Z,42.89
2019-03-21T07:39:01.200Z,42.86
2019-03-21T07:41:30.423Z,43.71
2019-03-21T07:43:59.886Z,44.23
2019-03-21T07:46:29.095Z,44.15
2019-03-21T07:48:58.326Z,43.63
2019-03-21T07:51:27.429Z,42.65
2019-03-21T07:53:56.580Z,42.50
2019-03-21T07:56:25.840Z,41.59
2019-03-21T07:58:57.605Z,40.89
2019-03-21T08:01:25.845Z,39.44
2019-03-21T08:03:54.990Z,38.59
2019-03-21T08:06:24.246Z,38.34
2019-03-21T08:08:53.380Z,39.81
2019-03-21T08:11:22.533Z,39.48
2019-03-21T08:13:51.641Z,37.92
2019-03-21T08:16:20.789Z,37.25
2019-03-21T08:18:49.925Z,36.45
2019-03-21T08:21:19.080Z,35.53
2019-03-21T08:23:48.300Z,35.01
2019-03-21T08:26:17.442Z,34.92
2019-03-21T08:28:46.752Z,34.48
2019-03-21T08:31:15.979Z,33.62
2019-03-21T08:33:45.505Z,34.21
2019-03-21T08:36:14.866Z,34.46
2019-03-21T08:38:44.093Z,33.51
2019-03-21T08:41:13.341Z,33.58
2019-03-21T08:43:42.536Z,32.97
2019-03-21T08:46:11.768Z,32.75
2019-03-21T08:48:40.998Z,32.50
2019-03-21T08:51:10.247Z,32.10
2019-03-21T08:53:39.498Z,32.37
2019-03-21T08:56:08.652Z,32.60
2019-03-21T08:58:37.908Z,32.09
2019-03-21T09:01:07.184Z,31.71
2019-03-21T09:03:36.392Z,32.06
2019-03-21T09:06:06.654Z,31.96
2019-03-21T09:08:35.886Z,31.04
2019-03-21T09:11:05.094Z,30.72
2019-03-21T09:13:34.294Z,30.29
2019-03-21T09:16:03.514Z,30.26
2019-03-21T09:18:32.657Z,29.80
2019-03-21T09:21:01.906Z,28.83
2019-03-21T09:23:31.044Z,28.76
2019-03-21T09:26:00.282Z,28.97
2019-03-21T09:28:29.597Z,29.01
2019-03-21T09:30:58.808Z,28.05
2019-03-21T09:33:28.033Z,28.00
2019-03-21T09:35:57.296Z,26.82
2019-03-21T09:38:26.528Z,28.02
2019-03-21T09:40:56.029Z,28.71
2019-03-21T09:43:25.226Z,28.52
2019-03-21T09:45:54.545Z,27.49
2019-03-21T09:48:23.685Z,26.45
2019-03-21T09:50:52.926Z,26.00
2019-03-21T09:53:22.074Z,26.66
2019-03-21T09:55:51.381Z,25.92
2019-03-21T09:58:20.557Z,26.24
2019-03-21T10:00:49.758Z,25.95
2019-03-21T10:03:18.985Z,25.47
2019-03-21T10:05:48.258Z,25.02
2019-03-21T10:08:17.402Z,24.37
2019-03-21T10:10:46.467Z,24.41
2019-03-21T10:13:15.635Z,23.43
2019-03-21T10:15:44.835Z,23.56
2019-03-21T10:18:13.965Z,24.13
2019-03-21T10:20:43.155Z,23.48
2019-03-21T10:23:12.355Z,23.83
2019-03-21T10:25:41.500Z,23.06
2019-03-21T10:28:10.845Z,22.88
2019-03-21T10:30:41.483Z,23.01
2019-03-21T10:33:13.246Z,22.84
2019-03-21T10:35:43.388Z,22.66
2019-03-21T10:38:12.653Z,22.87
2019-03-21T10:40:41.939Z,23.19
2019-03-21T10:43:11.277Z,22.22
2019-03-21T10:45:40.456Z,22.33
2019-03-21T10:48:09.663Z,21.83
2019-03-21T10:50:40.695Z,21.46
2019-03-21T10:53:10.315Z,21.51
2019-03-21T10:55:39.734Z,21.24
2019-03-21T10:58:09.473Z,21.39
2019-03-21T11:00:38.681Z,21.63
2019-03-21T11:03:08.084Z,21.09
2019-03-21T11:05:37.515Z,20.83
2019-03-21T11:08:07.129Z,20.27
2019-03-21T11:10:36.524Z,20.22
2019-03-21T11:13:06.402Z,20.04
2019-03-21T11:15:35.805Z,20.23
2019-03-21T11:18:05.107Z,19.68
2019-03-21T11:20:39.395Z,20.11
2019-03-21T11:23:09.109Z,20.09
2019-03-21T11:25:38.578Z,19.94
2019-03-21T11:28:08.208Z,19.73
2019-03-21T11:30:42.095Z,19.50
2019-03-21T11:33:11.570Z,19.73
2019-03-21T11:35:40.807Z,19.95
2019-03-21T11:38:10.026Z,19.55
2019-03-21T11:40:39.244Z,19.82
2019-03-21T11:43:09.761Z,19.54
2019-03-21T11:45:39.033Z,19.27
2019-03-21T11:48:08.519Z,19.24
2019-03-21T11:50:37.751Z,19.24
2019-03-21T11:53:07.050Z,19.02
2019-03-21T11:55:36.324Z,18.88
2019-03-21T11:58:05.878Z,18.85
2019-03-21T12:00:42.756Z,18.61
2019-03-21T12:03:06.318Z,18.77
2019-03-21T12:05:35.565Z,18.83
2019-03-21T12:08:04.862Z,18.33
2019-03-21T12:10:33.947Z,19.71
2019-03-21T12:13:03.204Z,19.48
2019-03-21T12:15:32.556Z,18.58
2019-03-21T12:18:01.763Z,17.66
2019-03-21T12:20:32.712Z,17.92
2019-03-21T12:23:02.004Z,17.92
2019-03-21T12:25:31.246Z,18.01
2019-03-21T12:28:01.682Z,17.62
2019-03-21T12:30:36.223Z,17.97
2019-03-21T12:33:05.938Z,17.98
2019-03-21T12:35:35.280Z,17.72
2019-03-21T12:38:05.202Z,17.41
2019-03-21T12:40:34.495Z,17.64
2019-03-21T12:43:04.037Z,17.15
2019-03-21T12:45:33.172Z,17.44
2019-03-21T12:48:02.310Z,17.53
2019-03-21T12:50:31.572Z,17.83
2019-03-21T12:53:00.788Z,18.01
2019-03-21T12:55:29.847Z,17.95
2019-03-21T12:57:59.090Z,17.74
2019-03-21T13:00:34.097Z,17.79
2019-03-21T13:03:03.329Z,17.44
2019-03-21T13:05:33.038Z,17.72
2019-03-21T13:08:02.243Z,17.89
2019-03-21T13:10:31.392Z,17.65
2019-03-21T13:13:01.017Z,17.20
2019-03-21T13:15:30.497Z,17.28
2019-03-21T13:18:00.582Z,17.22
2019-03-21T13:20:30.062Z,16.79
2019-03-21T13:22:59.116Z,16.67
2019-03-21T13:25:28.517Z,16.96
2019-03-21T13:27:58.021Z,16.92
2019-03-21T13:30:27.221Z,16.89
2019-03-21T13:32:56.440Z,16.86
2019-03-21T13:35:32.456Z,16.95
2019-03-21T13:37:56.525Z,16.32
2019-03-21T13:40:25.663Z,16.54
2019-03-21T13:42:55.987Z,16.35
2019-03-21T13:45:25.310Z,16.40
2019-03-21T13:47:54.519Z,16.33
2019-03-21T13:50:23.702Z,16.19
2019-03-21T13:53:03.971Z,16.42
2019-03-21T13:55:23.943Z,16.83
2019-03-21T13:57:54.898Z,16.82
2019-03-21T14:00:24.101Z,16.70
2019-03-21T14:02:53.321Z,16.62
2019-03-21T14:05:22.585Z,16.34
2019-03-21T14:07:51.803Z,16.50
2019-03-21T14:10:21.061Z,16.43
2019-03-21T14:12:50.362Z,16.64
2019-03-21T14:15:19.634Z,16.56
2019-03-21T14:17:48.782Z,16.70
2019-03-21T14:20:18.128Z,16.45
2019-03-21T14:22:47.294Z,16.34
2019-03-21T14:25:16.699Z,16.12
2019-03-21T14:27:45.969Z,16.57
2019-03-21T14:30:19.179Z,16.91
2019-03-21T14:32:48.454Z,17.21
2019-03-21T14:35:17.799Z,16.91
2019-03-21T14:37:47.035Z,16.91
2019-03-21T14:40:17.196Z,17.64
2019-03-21T14:42:46.521Z,17.37
2019-03-21T14:45:16.969Z,17.61
2019-03-21T14:47:46.240Z,16.98
2019-03-21T14:50:16.914Z,16.97
2019-03-21T14:52:46.118Z,16.89
2019-03-21T14:55:16.126Z,16.61
2019-03-21T14:57:45.325Z,16.78
2019-03-21T15:00:19.024Z,16.60
2019-03-21T15:02:48.251Z,16.42
2019-03-21T15:05:17.601Z,16.70
2019-03-21T15:07:46.773Z,17.46
2019-03-21T15:10:17.793Z,17.54
2019-03-21T15:12:46.966Z,17.30
2019-03-21T15:15:16.591Z,17.03
2019-03-21T15:17:45.797Z,16.50
2019-03-21T15:20:16.914Z,16.55
2019-03-21T15:22:46.118Z,16.29
2019-03-21T15:25:15.828Z,16.39
2019-03-21T15:27:45.057Z,15.90
2019-03-21T15:30:21.745Z,15.85
2019-03-21T15:32:51.162Z,15.71
2019-03-21T15:35:20.292Z,15.64
2019-03-21T15:37:49.499Z,15.48
2019-03-21T15:40:18.943Z,15.76
2019-03-21T15:42:48.121Z,16.42
2019-03-21T15:45:23.160Z,16.92
2019-03-21T15:47:49.264Z,16.74
2019-03-21T15:50:37.689Z,16.13
2019-03-21T15:53:07.390Z,16.41
2019-03-21T15:55:36.593Z,16.70
2019-03-21T15:58:05.799Z,17.26
2019-03-21T16:00:40.558Z,17.14
2019-03-21T16:03:11.852Z,17.34
2019-03-21T16:05:41.773Z,17.32
2019-03-21T16:08:11.032Z,17.26
2019-03-21T16:10:40.242Z,17.85
2019-03-21T16:13:09.669Z,18.05
2019-03-21T16:15:38.964Z,18.72
2019-03-21T16:18:08.243Z,19.28
2019-03-21T16:20:37.978Z,19.47
2019-03-21T16:23:07.218Z,19.91
2019-03-21T16:25:36.435Z,20.03
2019-03-21T16:28:05.735Z,20.84
2019-03-21T16:30:34.982Z,21.50
2019-03-21T16:33:04.200Z,21.84
2019-03-21T16:35:33.408Z,22.37
2019-03-21T16:38:02.582Z,23.16
2019-03-21T16:40:31.730Z,23.36
2019-03-21T16:43:05.594Z,23.96
2019-03-21T16:45:34.922Z,24.43
2019-03-21T16:48:04.772Z,24.81
2019-03-21T16:50:33.967Z,25.18
2019-03-21T16:53:03.221Z,25.18
2019-03-21T16:55:32.463Z,25.43
2019-03-21T16:58:01.677Z,25.84
2019-03-21T17:00:30.787Z,26.11
2019-03-21T17:02:59.930Z,26.48
2019-03-21T17:05:30.155Z,26.84
2019-03-21T17:08:10.510Z,27.11
2019-03-21T17:10:30.842Z,27.28
2019-03-21T17:13:04.394Z,27.48
2019-03-21T17:15:31.137Z,27.69
2019-03-21T17:18:00.360Z,28.02
2019-03-21T17:20:29.594Z,28.70
2019-03-21T17:22:59.378Z,28.64
2019-03-21T17:25:31.582Z,28.82
2019-03-21T17:28:01.006Z,28.97
2019-03-21T17:30:30.191Z,28.88
2019-03-21T17:32:59.418Z,28.83
2019-03-21T17:35:28.736Z,28.88
2019-03-21T17:37:57.992Z,29.49
2019-03-21T17:40:27.149Z,29.04
2019-03-21T17:42:56.452Z,29.54
2019-03-21T17:45:25.625Z,29.38
2019-03-21T17:47:54.861Z,29.49
2019-03-21T17:50:24.009Z,29.60
2019-03-21T17:52:53.198Z,29.71
2019-03-21T17:55:23.922Z,29.94
2019-03-21T17:57:53.139Z,29.93
2019-03-21T18:00:25.655Z,29.91
2019-03-21T18:02:55.373Z,30.01
2019-03-21T18:05:24.598Z,30.08
2019-03-21T18:07:53.851Z,30.13
2019-03-21T18:10:35.510Z,30.33
2019-03-21T18:13:05.086Z,30.33
2019-03-21T18:15:34.282Z,30.79
2019-03-21T18:18:03.837Z,30.82
2019-03-21T18:20:33.035Z,30.83
2019-03-21T18:23:02.527Z,31.20
2019-03-21T18:25:31.730Z,31.20
2019-03-21T18:28:01.038Z,31.29
2019-03-21T18:30:32.738Z,31.33
2019-03-21T18:33:01.894Z,31.87
2019-03-21T18:35:31.153Z,31.79
2019-03-21T18:38:00.387Z,31.71
2019-03-21T18:40:29.594Z,31.85
2019-03-21T18:42:58.925Z,32.09
2019-03-21T18:45:28.164Z,32.03
2019-03-21T18:47:57.517Z,32.19
2019-03-21T18:50:26.877Z,32.41
2019-03-21T18:52:56.212Z,32.58
2019-03-21T18:55:25.522Z,32.65
2019-03-21T18:57:54.919Z,32.63
2019-03-21T19:00:24.322Z,32.96
2019-03-21T19:02:53.539Z,32.68
2019-03-21T19:05:22.790Z,33.23
2019-03-21T19:07:52.001Z,33.02
2019-03-21T19:10:21.253Z,32.96
2019-03-21T19:12:50.524Z,33.14
2019-03-21T19:15:19.929Z,33.17
2019-03-21T19:17:49.337Z,33.41
2019-03-21T19:20:21.692Z,33.18
2019-03-21T19:22:50.991Z,33.57
2019-03-21T19:25:20.362Z,33.19
2019-03-21T19:27:49.594Z,33.45
2019-03-21T19:30:20.719Z,33.40
2019-03-21T19:32:50.031Z,33.35
2019-03-21T19:35:19.678Z,33.43
2019-03-21T19:37:49.009Z,33.49
2019-03-21T19:40:20.261Z,33.40
2019-03-21T19:42:49.696Z,33.70
2019-03-21T19:45:19.961Z,33.59
2019-03-21T19:47:49.240Z,33.80
2019-03-21T19:50:20.093Z,33.99
2019-03-21T19:52:49.354Z,34.16
2019-03-21T19:55:30.388Z,34.08
2019-03-21T19:57:49.654Z,34.34
2019-03-21T20:00:23.708Z,34.34
2019-03-21T20:02:52.919Z,34.25
2019-03-21T20:05:22.214Z,34.26
2019-03-21T20:07:51.483Z,34.66
2019-03-21T20:10:22.466Z,34.77
2019-03-21T20:12:51.707Z,34.81
2019-03-21T20:15:21.155Z,34.77
2019-03-21T20:17:50.438Z,34.84
2019-03-21T20:20:20.264Z,34.80
2019-03-21T20:22:49.527Z,34.77
2019-03-21T20:25:18.859Z,35.37
2019-03-21T20:27:48.078Z,35.17
2019-03-21T20:30:21.618Z,35.80
2019-03-21T20:32:50.762Z,35.65
2019-03-21T20:35:20.076Z,36.49
2019-03-21T20:37:49.392Z,37.19
2019-03-21T20:40:19.726Z,38.44
2019-03-21T20:42:49.034Z,39.32
2019-03-21T20:45:19.706Z,40.60
2019-03-21T20:47:48.947Z,40.29
2019-03-21T20:50:18.491Z,40.45
2019-03-21T20:52:47.763Z,40.11
2019-03-21T20:55:17.494Z,40.22
2019-03-21T20:57:46.827Z,39.83
2019-03-21T21:00:19.223Z,39.53
2019-03-21T21:02:49.215Z,39.12
2019-03-21T21:05:18.583Z,38.90
2019-03-21T21:07:48.050Z,38.73
2019-03-21T21:10:17.370Z,39.02
2019-03-21T21:12:46.573Z,39.74
2019-03-21T21:15:17.894Z,39.43
2019-03-21T21:17:47.147Z,39.46
2019-03-21T21:20:18.412Z,39.53
2019-03-21T21:22:47.654Z,39.61
2019-03-21T21:25:16.920Z,40.19
2019-03-21T21:27:49.962Z,39.95
2019-03-21T21:30:21.750Z,40.16
2019-03-21T21:32:50.983Z,41.82
2019-03-21T21:35:20.237Z,42.42
2019-03-21T21:37:49.569Z,43.28
2019-03-21T21:40:19.086Z,43.08
2019-03-21T21:42:48.389Z,43.28
2019-03-21T21:45:18.302Z,42.78
2019-03-21T21:47:47.527Z,43.17
2019-03-21T21:50:17.879Z,42.55
2019-03-21T21:52:47.229Z,42.42
2019-03-21T21:55:16.464Z,42.67
2019-03-21T21:57:45.637Z,42.51
2019-03-21T22:00:22.478Z,42.88
2019-03-21T22:02:51.778Z,42.90
2019-03-21T22:05:21.071Z,43.15
2019-03-21T22:07:50.240Z,42.95
2019-03-21T22:10:19.468Z,42.54
2019-03-21T22:12:48.880Z,43.67
2019-03-21T22:15:18.132Z,44.23
2019-03-21T22:17:47.351Z,44.66
2019-03-21T22:20:17.243Z,44.91
2019-03-21T22:22:46.808Z,44.65
2019-03-21T22:25:16.413Z,44.48
2019-03-21T22:27:45.567Z,44.63
2019-03-21T22:30:18.968Z,44.75
2019-03-21T22:32:51.741Z,44.20
2019-03-21T22:35:20.950Z,44.33
2019-03-21T22:37:50.203Z,43.85
2019-03-21T22:40:19.771Z,43.70
2019-03-21T22:42:48.994Z,43.75
2019-03-21T22:45:18.552Z,43.87
2019-03-21T22:47:50.262Z,44.39
2019-03-21T22:50:18.809Z,44.16
2019-03-21T22:52:48.069Z,44.58
2019-03-21T22:55:17.219Z,44.76
2019-03-21T22:57:46.477Z,44.36
2019-03-21T23:00:29.940Z,44.35
2019-03-21T23:02:59.398Z,44.44
2019-03-21T23:05:29.952Z,44.37
2019-03-21T23:07:59.533Z,43.92
2019-03-21T23:10:29.020Z,43.92
2019-03-21T23:12:58.466Z,45.20
2019-03-21T23:15:27.952Z,44.42
2019-03-21T23:17:57.372Z,44.39
2019-03-21T23:20:26.863Z,44.46
2019-03-21T23:22:56.369Z,44.67
2019-03-21T23:25:25.762Z,44.61
2019-03-21T23:27:55.168Z,44.60
2019-03-21T23:30:24.686Z,44.39
2019-03-21T23:32:54.107Z,44.50
2019-03-21T23:35:23.627Z,44.95
2019-03-21T23:37:53.204Z,44.96
2019-03-21T23:40:22.603Z,46.80
2019-03-21T23:42:52.110Z,46.80
2019-03-21T23:45:21.841Z,47.15
2019-03-21T23:47:51.327Z,47.15
2019-03-21T23:50:20.929Z,47.95
2019-03-21T23:52:50.432Z,47.67
2019-03-21T23:55:19.828Z,47.58
2019-03-21T23:57:49.244Z,47.40
